Tallassee, Tennessee
Current Conditions -  °F | °C
As of 7:01 AM on Thursday 27 Nov 2014 (Local Time) from KTYS Reporting Station
Overcast Overcast  
Wind Chill: 32°   Ceiling: 2800
Heat Index: 38°   Visibility: 10mi
Dew Point: 32°   Wind: 8mph
Humidity: 79%   Direction: 260°W
Pressure: 30.13"   Gusts: NA
Location:  35.55°N, 84.06°W
Report Text: KTYS 271201Z 26007KT 10SM BKN028 OVC048 03/00 A3013 RMK AO2 T00330000
Loading
Personal Weather Stations






























Interactive Weather Map New forecast layout! Learn more

10-Day Weather Forecast

Advertisements
Track Severe Weather on mobile